Time;durP1;ratioP1;P1;durP2;ratioP2;P2;SDS_P1;SDS_P2;PMS_P1;PMS_P2;Temp;Humidity;BMP_temperature;BMP_pressure;BME280_temperature;BME280_humidity;BME280_pressure;Samples;Min_cycle;Max_cycle;Signal;HPM_P1;HPM_P2
2022/02/19 19:17:47;;;;;;;26.50;11.32;;;;;;;6.38;89.94;99876.56;5025921;27;20422;-88
2022/02/19 19:20:15;;;;;;;33.42;13.15;;;;;;;6.40;90.30;99865.25;4975741;28;21250;-85
2022/02/19 19:22:42;;;;;;;44.28;21.60;;;;;;;6.41;90.36;99856.63;4966653;28;20047;-88
2022/02/19 19:25:10;;;;;;;61.95;32.38;;;;;;;6.43;90.77;99848.88;4968602;28;20051;-89
2022/02/19 19:28:11;;;;;;;27.83;11.52;;;;;;;6.44;91.01;99844.97;5092257;27;20430;-87
2022/02/19 19:30:39;;;;;;;22.45;9.85;;;;;;;6.46;91.37;99848.16;5057651;28;20123;-87
2022/02/19 19:33:07;;;;;;;24.92;8.60;;;;;;;6.48;91.01;99823.91;5059285;28;20049;-87
2022/02/19 19:35:43;;;;;;;19.13;7.40;;;;;;;6.51;91.59;99827.94;5035324;28;20120;-88
2022/02/19 19:38:13;;;;;;;22.85;7.30;;;;;;;6.52;91.94;99822.06;5057490;28;20080;-88
2022/02/19 19:40:41;;;;;;;26.23;9.13;;;;;;;6.53;92.26;99815.44;5038882;28;20037;-88
2022/02/19 19:43:09;;;;;;;25.92;9.88;;;;;;;6.55;92.29;99802.16;5040454;28;20056;-89
2022/02/19 19:45:36;;;;;;;22.55;9.45;;;;;;;6.57;92.60;99801.78;5037844;28;20049;-87
2022/02/19 19:48:03;;;;;;;27.55;9.35;;;;;;;6.60;92.37;99792.88;5024030;28;20045;-89
2022/02/19 19:50:30;;;;;;;23.00;9.60;;;;;;;6.61;92.77;99794.47;5041233;28;20053;-89
2022/02/19 19:52:57;;;;;;;17.60;6.15;;;;;;;6.63;93.45;99778.44;5040346;28;20045;-88
2022/02/19 19:55:25;;;;;;;10.93;6.05;;;;;;;6.66;93.06;99772.25;5040294;28;20615;-85
2022/02/19 19:57:52;;;;;;;25.55;10.02;;;;;;;6.68;93.40;99765.25;5037195;28;20124;-87
2022/02/19 20:00:19;;;;;;;19.23;7.57;;;;;;;6.71;93.96;99766.53;5054797;28;20501;-87
2022/02/19 20:02:47;;;;;;;23.70;9.07;;;;;;;6.73;93.58;99765.03;5056041;28;20045;-86
2022/02/19 20:05:15;;;;;;;20.50;6.85;;;;;;;6.74;94.37;99755.66;5015549;28;20049;-86
2022/02/19 20:07:43;;;;;;;11.82;5.13;;;;;;;6.78;94.84;99757.72;5039650;28;20053;-87
2022/02/19 20:10:12;;;;;;;11.73;4.50;;;;;;;6.81;94.52;99763.31;5057230;28;20045;-87
2022/02/19 20:12:40;;;;;;;16.13;3.95;;;;;;;6.84;94.49;99756.31;5057426;28;20041;-87
2022/02/19 20:15:08;;;;;;;11.82;4.05;;;;;;;6.86;95.21;99745.78;5038532;28;20046;-86
2022/02/19 20:17:35;;;;;;;7.57;3.58;;;;;;;6.90;95.52;99747.50;5039640;28;20053;-86
2022/02/19 20:20:03;;;;;;;8.07;3.03;;;;;;;6.93;95.35;99737.75;5022870;28;20489;-86
2022/02/19 20:22:30;;;;;;;7.32;3.15;;;;;;;6.95;96.32;99727.19;5057898;28;20120;-88
2022/02/19 20:24:57;;;;;;;8.80;2.75;;;;;;;7.04;97.31;99730.63;5040439;28;20139;-86
2022/02/19 20:27:24;;;;;;;5.53;2.63;;;;;;;7.09;96.97;99719.38;5038936;28;20045;-84
2022/02/19 20:29:52;;;;;;;4.97;2.53;;;;;;;7.14;97.08;99721.91;5055453;28;20123;-86
2022/02/19 20:32:20;;;;;;;11.65;3.70;;;;;;;7.21;96.82;99719.34;5041635;28;20469;-85
2022/02/19 20:34:49;;;;;;;4.20;2.20;;;;;;;7.25;96.53;99728.53;5054679;28;20037;-86
2022/02/19 20:37:16;;;;;;;11.38;2.65;;;;;;;7.34;97.93;99712.66;5038807;28;21074;-83
2022/02/19 20:39:43;;;;;;;6.35;1.88;;;;;;;7.43;97.90;99712.53;5028280;28;20037;-88
2022/02/19 20:42:10;;;;;;;8.75;3.78;;;;;;;7.48;98.10;99710.34;5043740;28;20049;-88
2022/02/19 20:44:39;;;;;;;8.95;2.58;;;;;;;7.52;98.19;99708.47;5026466;28;20134;-86
2022/02/19 20:47:07;;;;;;;7.40;3.05;;;;;;;7.55;97.93;99705.03;5025873;28;20048;-88
2022/02/19 20:49:35;;;;;;;12.15;3.95;;;;;;;7.57;98.06;99707.44;5043722;28;20049;-89
2022/02/19 20:52:02;;;;;;;6.82;3.13;;;;;;;7.59;98.64;99708.69;5010473;28;20416;-88
2022/02/19 20:54:30;;;;;;;9.32;3.38;;;;;;;7.62;98.81;99707.19;5024402;28;20054;-85
2022/02/19 20:56:57;;;;;;;8.27;2.88;;;;;;;7.65;99.22;99693.50;5025170;28;20144;-88
2022/02/19 20:59:27;;;;;;;12.32;2.38;;;;;;;7.68;99.34;99684.53;5024634;28;20056;-86
2022/02/19 21:01:54;;;;;;;8.88;3.17;;;;;;;7.70;99.14;99676.75;5024353;28;20076;-87
2022/02/19 21:04:21;;;;;;;13.15;3.53;;;;;;;7.73;99.47;99680.75;5025523;28;20046;-87
2022/02/19 21:06:48;;;;;;;12.00;3.00;;;;;;;7.74;99.92;99666.59;5025260;28;20064;-86
2022/02/19 21:09:15;;;;;;;8.45;3.25;;;;;;;7.78;99.62;99670.25;4992642;28;20125;-88
2022/02/19 21:11:42;;;;;;;8.57;3.72;;;;;;;7.81;99.77;99658.53;5024165;28;20075;-88
2022/02/19 21:14:09;;;;;;;7.13;2.67;;;;;;;7.85;99.88;99647.59;5041728;28;20038;-88
2022/02/19 21:16:36;;;;;;;5.60;2.72;;;;;;;7.88;100.00;99644.94;5042351;28;20523;-86
2022/02/19 21:19:03;;;;;;;6.40;2.55;;;;;;;7.92;100.00;99651.34;5008600;28;20069;-88
2022/02/19 21:21:31;;;;;;;8.75;3.08;;;;;;;7.95;100.00;99642.38;5025197;28;20045;-88
2022/02/19 21:23:58;;;;;;;8.10;2.67;;;;;;;7.98;100.00;99660.16;5024609;28;20049;-88
2022/02/19 21:26:25;;;;;;;10.23;3.05;;;;;;;8.02;100.00;99654.75;5025436;28;20053;-87
2022/02/19 21:28:52;;;;;;;8.70;3.67;;;;;;;8.07;100.00;99651.72;5024601;28;20041;-87
2022/02/19 21:31:20;;;;;;;9.68;2.72;;;;;;;8.12;100.00;99637.66;5026068;28;20058;-83
2022/02/19 21:33:47;;;;;;;6.28;2.50;;;;;;;8.16;100.00;99633.84;5007947;28;20496;-86
2022/02/19 21:36:14;;;;;;;9.73;3.25;;;;;;;8.18;100.00;99636.25;5007645;28;20457;-86
2022/02/19 21:38:42;;;;;;;8.93;3.10;;;;;;;8.23;100.00;99630.47;5022747;28;20048;-86
2022/02/19 21:41:09;;;;;;;9.60;3.72;;;;;;;8.25;100.00;99614.34;5023664;28;20487;-86
2022/02/19 21:43:36;;;;;;;7.20;1.90;;;;;;;8.27;100.00;99634.94;5041524;28;20041;-87
2022/02/19 21:46:09;;;;;;;7.22;2.72;;;;;;;8.30;100.00;99627.91;5025180;28;20583;-86
2022/02/19 21:48:36;;;;;;;11.07;3.80;;;;;;;8.32;100.00;99628.34;5008967;28;20041;-88
2022/02/19 21:51:04;;;;;;;14.25;3.05;;;;;;;8.33;100.00;99627.19;5022205;28;20045;-84
2022/02/19 21:53:31;;;;;;;13.55;2.88;;;;;;;8.34;100.00;99623.28;5007550;28;20049;-86
2022/02/19 21:56:01;;;;;;;7.28;3.40;;;;;;;8.37;100.00;99612.31;5023532;28;20033;-84
2022/02/19 21:58:31;;;;;;;15.70;2.95;;;;;;;8.40;100.00;99600.59;5023937;28;20041;-83
2022/02/19 22:00:59;;;;;;;21.42;3.60;;;;;;;8.43;100.00;99607.34;5023850;28;20057;-82
2022/02/19 22:03:26;;;;;;;13.30;3.22;;;;;;;8.45;100.00;99603.06;5007202;28;20128;-83
2022/02/19 22:05:53;;;;;;;19.17;4.43;;;;;;;8.50;100.00;99604.72;5025725;28;20049;-83
2022/02/19 22:08:20;;;;;;;21.85;6.43;;;;;;;8.52;100.00;99596.94;5023912;28;20140;-83
2022/02/19 22:10:47;;;;;;;17.58;5.32;;;;;;;8.56;100.00;99595.03;5006704;28;20136;-83
2022/02/19 22:13:15;;;;;;;20.05;4.28;;;;;;;8.60;100.00;99595.94;5006058;28;20045;-92
2022/02/19 22:15:43;;;;;;;19.05;4.47;;;;;;;8.63;100.00;99595.19;5021176;28;20053;-93
2022/02/19 22:18:12;;;;;;;19.67;4.50;;;;;;;8.66;100.00;99591.72;5008034;28;20049;-92
2022/02/19 22:20:43;;;;;;;28.20;4.63;;;;;;;8.70;100.00;99609.16;5024057;28;20109;-95
2022/02/19 22:23:27;;;;;;;17.08;4.07;;;;;;;8.73;100.00;99610.41;5026037;28;20049;-90
2022/02/19 22:25:57;;;;;;;24.23;4.10;;;;;;;8.77;100.00;99625.06;5008127;28;20041;-88
2022/02/19 22:28:25;;;;;;;24.05;5.82;;;;;;;8.80;100.00;99600.31;5008337;28;20080;-92
2022/02/19 22:30:53;;;;;;;18.13;4.90;;;;;;;8.84;100.00;99608.69;5007424;28;20057;-92
2022/02/19 22:33:20;;;;;;;41.00;7.13;;;;;;;8.88;100.00;99615.88;5024056;28;20041;-93
2022/02/19 22:35:48;;;;;;;29.70;5.00;;;;;;;8.92;100.00;99616.72;5023423;28;20117;-92
2022/02/19 22:38:20;;;;;;;29.85;6.65;;;;;;;8.95;100.00;99616.00;5007872;28;20044;-93
2022/02/19 22:40:48;;;;;;;27.10;5.30;;;;;;;8.99;100.00;99614.13;5023296;28;20073;-91
2022/02/19 22:43:15;;;;;;;22.20;5.03;;;;;;;9.02;100.00;99610.66;5007902;28;20053;-85
2022/02/19 22:45:42;;;;;;;26.58;6.07;;;;;;;9.03;100.00;99601.19;5038558;28;20136;-92
2022/02/19 22:48:09;;;;;;;42.85;7.85;;;;;;;9.03;100.00;99584.63;5007633;28;20045;-89
2022/02/19 22:50:36;;;;;;;28.92;6.20;;;;;;;9.04;100.00;99583.47;5025232;28;20037;-89
2022/02/19 22:53:03;;;;;;;37.05;10.00;;;;;;;9.04;100.00;99597.28;5022549;28;20049;-88
2022/02/19 22:55:50;;;;;;;31.25;7.07;;;;;;;9.04;100.00;99593.72;5022593;28;20040;-89
2022/02/19 22:58:18;;;;;;;28.55;6.28;;;;;;;9.04;100.00;99597.28;5021466;28;20041;-90
2022/02/19 23:00:44;;;;;;;31.50;6.28;;;;;;;9.05;100.00;99587.81;5008018;28;20068;-89
2022/02/19 23:05:34;;;;;;;29.50;5.22;;;;;;;9.06;100.00;99588.63;5024102;28;20572;-89
2022/02/19 23:05:59;;;;;;;33.45;6.95;;;;;;;9.06;100.00;99581.16;5034998;28;20045;-88
2022/02/19 23:08:26;;;;;;;36.15;7.22;;;;;;;9.07;100.00;99565.38;5022206;28;20049;-87
2022/02/19 23:10:53;;;;;;;33.28;7.53;;;;;;;9.06;100.00;99544.44;5023263;28;20052;-88
2022/02/19 23:13:20;;;;;;;35.10;6.60;;;;;;;9.07;100.00;99557.91;5020464;28;20045;-89
2022/02/19 23:15:47;;;;;;;33.97;7.43;;;;;;;9.07;100.00;99557.91;5004456;28;20057;-89
2022/02/19 23:18:14;;;;;;;33.10;6.68;;;;;;;9.07;100.00;99566.19;5022927;28;20049;-87
2022/02/19 23:20:41;;;;;;;30.05;7.75;;;;;;;9.10;100.00;99559.94;5022601;28;20042;-92
2022/02/19 23:23:08;;;;;;;31.02;5.95;;;;;;;9.11;100.00;99558.75;5020660;28;20069;-89
2022/02/19 23:25:35;;;;;;;33.65;6.70;;;;;;;9.11;100.00;99564.28;5019118;28;20045;-90
2022/02/19 23:28:05;;;;;;;32.75;9.02;;;;;;;9.12;100.00;99543.81;5020280;28;20208;-85
2022/02/19 23:30:32;;;;;;;32.67;5.32;;;;;;;9.14;99.90;99549.75;5023257;28;20029;-87
2022/02/19 23:33:00;;;;;;;40.58;7.13;;;;;;;9.15;99.63;99534.81;5022698;28;20065;-89
2022/02/19 23:35:27;;;;;;;41.42;10.93;;;;;;;9.15;99.21;99523.75;5005502;28;20509;-85
2022/02/19 23:37:54;;;;;;;34.08;6.35;;;;;;;9.17;99.17;99513.13;5004964;28;20796;-86
2022/02/19 23:40:24;;;;;;;41.75;8.15;;;;;;;9.17;98.90;99518.66;5024357;28;20041;-88
2022/02/19 23:42:51;;;;;;;28.58;6.40;;;;;;;9.18;98.47;99508.41;5020654;28;20057;-86
2022/02/19 23:45:18;;;;;;;35.03;7.28;;;;;;;9.19;98.26;99505.28;5004333;28;20592;-90
2022/02/19 23:47:45;;;;;;;34.17;7.47;;;;;;;9.20;98.36;99503.31;5023080;28;20048;-89
2022/02/19 23:50:12;;;;;;;36.47;8.43;;;;;;;9.18;98.26;99484.38;5008391;28;20053;-91
2022/02/19 23:52:39;;;;;;;33.03;8.35;;;;;;;9.19;98.19;99490.66;5021616;28;20048;-90
2022/02/19 23:55:11;;;;;;;42.47;7.63;;;;;;;9.21;97.95;99473.75;5040578;28;20042;-89
2022/02/19 23:57:38;;;;;;;38.05;7.53;;;;;;;9.21;97.65;99477.31;5021135;28;20057;-92
